Time;durP1;ratioP1;P1;durP2;ratioP2;P2;SDS_P1;SDS_P2;PMS_P1;PMS_P2;Temp;Humidity;BMP_temperature;BMP_pressure;BME280_temperature;BME280_humidity;BME280_pressure;Samples;Min_cycle;Max_cycle;Signal;HPM_P1;HPM_P2
2022/01/19 00:00:53;;;;;;;36.92;22.55;;;4.30;99.90;;;;;;5049908;28;20437;-70
2022/01/19 00:03:19;;;;;;;39.85;21.30;;;4.30;99.90;;;;;;5050589;28;20052;-70
2022/01/19 00:05:45;;;;;;;44.70;22.02;;;4.30;99.90;;;;;;5051837;28;20491;-71
2022/01/19 00:08:16;;;;;;;50.88;23.98;;;4.30;99.90;;;;;;5082927;28;20049;-70
2022/01/19 00:10:42;;;;;;;50.17;24.70;;;4.20;99.90;;;;;;5050466;28;20060;-70
2022/01/19 00:13:08;;;;;;;48.88;23.60;;;4.30;99.90;;;;;;5051626;28;20048;-70
2022/01/19 00:15:34;;;;;;;45.95;23.30;;;4.30;99.90;;;;;;5083382;28;20053;-70
2022/01/19 00:17:59;;;;;;;48.67;22.95;;;4.30;99.90;;;;;;5050518;28;20055;-70
2022/01/19 00:20:27;;;;;;;42.75;23.15;;;4.20;99.90;;;;;;5049997;28;20048;-70
2022/01/19 00:22:56;;;;;;;53.85;24.52;;;4.20;99.90;;;;;;5049414;28;20106;-70
2022/01/19 00:25:22;;;;;;;38.28;22.50;;;4.30;99.90;;;;;;5083691;28;20126;-69
2022/01/19 00:27:48;;;;;;;44.33;23.00;;;4.20;99.90;;;;;;5050066;28;20052;-70
2022/01/19 00:30:14;;;;;;;49.75;23.50;;;4.20;99.90;;;;;;5082952;28;20057;-70
2022/01/19 00:32:40;;;;;;;48.78;21.92;;;4.20;99.90;;;;;;5050188;28;20041;-70
2022/01/19 00:35:08;;;;;;;53.05;24.90;;;4.20;99.90;;;;;;5049611;28;20049;-70
2022/01/19 00:37:33;;;;;;;54.63;25.80;;;4.30;99.90;;;;;;5083013;28;20056;-70
2022/01/19 00:39:59;;;;;;;44.55;24.48;;;4.30;99.90;;;;;;5049933;28;20048;-70
2022/01/19 00:42:24;;;;;;;52.22;25.65;;;4.20;99.90;;;;;;5049714;28;20045;-70
2022/01/19 00:44:50;;;;;;;56.47;28.42;;;4.20;99.90;;;;;;5049110;28;20041;-70
2022/01/19 00:47:16;;;;;;;56.60;26.90;;;4.20;99.90;;;;;;5049447;28;20098;-70
2022/01/19 00:49:42;;;;;;;54.58;27.23;;;4.20;99.90;;;;;;5050155;28;20492;-70
2022/01/19 00:52:12;;;;;;;61.08;28.05;;;4.10;99.90;;;;;;5082949;28;20044;-70
2022/01/19 00:54:39;;;;;;;55.20;27.80;;;4.10;99.90;;;;;;5051112;28;20059;-70
2022/01/19 00:57:05;;;;;;;52.05;25.92;;;4.20;99.90;;;;;;5048706;28;20049;-70
2022/01/19 00:59:31;;;;;;;55.60;26.38;;;4.10;99.90;;;;;;5049740;28;20049;-69
2022/01/19 01:01:56;;;;;;;55.42;25.40;;;4.10;99.90;;;;;;5051044;28;20446;-70
2022/01/19 01:04:22;;;;;;;47.83;23.58;;;4.10;99.90;;;;;;5048684;28;20045;-70
2022/01/19 01:06:48;;;;;;;51.10;26.23;;;4.10;99.90;;;;;;5049575;28;20091;-69
2022/01/19 01:09:14;;;;;;;51.47;27.02;;;4.10;99.90;;;;;;5050665;28;20080;-70
2022/01/19 01:11:48;;;;;;;60.20;28.98;;;4.10;99.90;;;;;;5048913;28;20128;-70
2022/01/19 01:17:09;;;;;;;65.55;28.45;;;4.10;99.90;;;;;;5049583;28;20045;-69
2022/01/19 01:19:27;;;;;;;56.72;26.90;;;4.00;99.90;;;;;;5048904;28;20095;-70
2022/01/19 01:21:53;;;;;;;59.42;28.27;;;4.00;99.90;;;;;;5049388;28;20087;-70
2022/01/19 01:24:18;;;;;;;54.08;27.48;;;4.00;99.90;;;;;;5049137;28;20045;-70
2022/01/19 01:26:44;;;;;;;63.70;29.15;;;4.00;99.90;;;;;;5048824;28;20404;-70
2022/01/19 01:29:10;;;;;;;64.65;30.73;;;4.00;99.90;;;;;;5049599;28;20049;-70
2022/01/19 01:31:36;;;;;;;58.10;28.02;;;4.00;99.90;;;;;;5083265;28;20136;-70
2022/01/19 01:34:02;;;;;;;51.63;26.08;;;4.00;99.90;;;;;;5082276;28;20148;-70
2022/01/19 01:36:27;;;;;;;61.10;29.10;;;4.00;99.90;;;;;;5049328;28;20053;-70
2022/01/19 01:38:53;;;;;;;77.07;32.55;;;4.00;99.90;;;;;;5049377;28;20044;-70
2022/01/19 01:41:19;;;;;;;62.42;29.85;;;4.00;99.90;;;;;;5048563;28;20136;-70
2022/01/19 01:43:45;;;;;;;73.78;31.40;;;4.00;99.90;;;;;;5049403;28;20052;-70
2022/01/19 01:46:49;;;;;;;59.83;28.50;;;4.00;99.90;;;;;;5049145;28;20136;-69
2022/01/19 01:49:04;;;;;;;63.55;29.98;;;3.90;99.90;;;;;;5047646;28;20411;-70
2022/01/19 01:54:14;;;;;;;59.38;29.13;;;3.80;99.90;;;;;;5048391;28;20076;-70
2022/01/19 01:56:39;;;;;;;66.30;31.02;;;3.80;99.90;;;;;;5049511;28;20498;-70
2022/01/19 01:59:05;;;;;;;66.38;32.05;;;3.80;99.90;;;;;;5049182;28;20049;-70
2022/01/19 02:01:31;;;;;;;65.60;30.83;;;3.90;99.90;;;;;;5048394;28;20472;-70
2022/01/19 02:03:57;;;;;;;56.10;28.08;;;3.80;99.90;;;;;;5083271;28;20043;-70
2022/01/19 02:06:37;;;;;;;67.13;31.23;;;3.80;99.90;;;;;;5048810;28;20053;-70
2022/01/19 02:09:17;;;;;;;69.78;31.42;;;3.80;99.90;;;;;;5048685;28;20103;-70
2022/01/19 02:23:01;;;;;;;62.42;28.17;;;3.70;99.90;;;;;;5047803;28;20048;-70
2022/01/19 02:25:30;;;;;;;53.80;27.67;;;3.80;99.90;;;;;;5052625;28;20049;-69
2022/01/19 02:41:52;;;;;;;67.85;31.27;;;3.80;99.90;;;;;;5049165;28;20049;-70
2022/01/19 02:44:35;;;;;;;70.90;33.15;;;3.80;99.90;;;;;;5051148;28;20056;-69
2022/01/19 02:49:50;;;;;;;69.40;28.48;;;3.80;99.90;;;;;;5051593;28;20057;-70
2022/01/19 02:52:17;;;;;;;60.42;31.02;;;3.80;99.90;;;;;;5052053;28;20483;-70
2022/01/19 02:54:43;;;;;;;69.00;29.17;;;3.80;99.90;;;;;;5053277;28;20109;-70
2022/01/19 02:57:12;;;;;;;67.93;30.38;;;3.80;99.90;;;;;;5050382;28;20497;-70
2022/01/19 03:10:20;;;;;;;80.05;34.58;;;3.90;99.90;;;;;;5051557;28;20053;-70
2022/01/19 03:12:46;;;;;;;71.35;31.77;;;4.00;99.90;;;;;;5051302;28;20389;-70
2022/01/19 03:15:12;;;;;;;76.40;33.03;;;4.00;99.90;;;;;;5084733;28;20496;-70
2022/01/19 03:17:41;;;;;;;67.13;31.52;;;4.00;99.90;;;;;;5051601;28;20053;-70
2022/01/19 03:20:09;;;;;;;79.00;34.70;;;4.00;99.90;;;;;;5052513;28;20044;-69
2022/01/19 03:22:42;;;;;;;78.63;34.10;;;4.00;99.90;;;;;;5084947;28;20053;-70
2022/01/19 03:25:12;;;;;;;71.55;34.97;;;4.00;99.90;;;;;;5050405;28;20118;-69
2022/01/19 03:27:46;;;;;;;76.03;35.65;;;4.00;99.90;;;;;;5085027;28;20083;-70
2022/01/19 03:30:12;;;;;;;86.10;31.75;;;4.00;99.90;;;;;;5051278;28;20071;-70
2022/01/19 03:32:38;;;;;;;80.65;33.65;;;4.00;99.90;;;;;;5084219;28;20060;-70
2022/01/19 03:35:04;;;;;;;85.82;36.38;;;4.10;99.90;;;;;;5051011;28;20057;-69
2022/01/19 03:37:30;;;;;;;91.45;36.42;;;4.00;99.90;;;;;;5051530;28;20396;-70
2022/01/19 03:39:56;;;;;;;70.63;30.45;;;4.00;99.90;;;;;;5084023;28;20045;-70
2022/01/19 03:42:21;;;;;;;77.82;32.35;;;4.00;99.90;;;;;;5084599;28;20056;-70
2022/01/19 03:44:47;;;;;;;71.18;31.05;;;4.00;99.90;;;;;;5052528;28;20590;-70
2022/01/19 03:47:13;;;;;;;72.70;29.10;;;4.00;99.90;;;;;;5050132;28;20049;-70
2022/01/19 03:49:38;;;;;;;74.03;29.55;;;4.00;99.90;;;;;;5084924;28;20164;-70
2022/01/19 03:52:05;;;;;;;70.15;30.52;;;3.90;99.90;;;;;;5052142;28;20172;-70
2022/01/19 03:54:35;;;;;;;79.63;29.88;;;3.90;99.90;;;;;;5050231;28;20053;-70
2022/01/19 03:57:01;;;;;;;80.68;30.13;;;3.90;99.90;;;;;;5083929;28;20065;-70
2022/01/19 03:59:27;;;;;;;82.32;30.95;;;3.90;99.90;;;;;;5084669;28;20044;-70
2022/01/19 04:01:53;;;;;;;80.38;32.15;;;4.00;99.90;;;;;;5050132;28;20132;-69
2022/01/19 04:09:25;;;;;;;66.43;28.40;;;4.00;99.90;;;;;;5050486;28;20060;-70
2022/01/19 04:11:52;;;;;;;75.10;30.33;;;3.90;99.90;;;;;;5084174;28;20507;-70
2022/01/19 04:14:36;;;;;;;70.57;26.20;;;3.90;99.90;;;;;;5050736;28;20135;-70
2022/01/19 04:17:04;;;;;;;72.22;28.92;;;3.90;99.90;;;;;;5050516;28;20391;-70
2022/01/19 04:19:34;;;;;;;73.55;28.25;;;3.90;99.90;;;;;;5050381;28;20476;-70
2022/01/19 04:22:03;;;;;;;79.05;31.00;;;3.90;99.90;;;;;;5049726;28;20049;-70
2022/01/19 04:24:29;;;;;;;75.70;29.73;;;4.00;99.90;;;;;;5050603;28;20045;-69
2022/01/19 04:26:58;;;;;;;70.03;30.02;;;3.90;99.90;;;;;;5084077;28;20063;-70
2022/01/19 04:29:25;;;;;;;80.80;30.73;;;3.90;99.90;;;;;;5050713;28;20051;-70
2022/01/19 04:31:50;;;;;;;79.65;31.02;;;4.00;99.90;;;;;;5051342;28;20080;-70
2022/01/19 04:34:18;;;;;;;78.60;30.80;;;3.90;99.90;;;;;;5049988;28;20068;-70
2022/01/19 04:48:10;;;;;;;69.30;29.25;;;4.00;99.90;;;;;;5051372;28;20055;-70
2022/01/19 05:01:47;;;;;;;64.32;25.35;;;3.90;99.90;;;;;;5049909;28;20507;-70
2022/01/19 05:04:28;;;;;;;68.93;25.52;;;3.90;99.90;;;;;;5048699;28;20049;-70
2022/01/19 05:07:09;;;;;;;51.95;23.38;;;3.90;99.90;;;;;;5049943;28;20061;-70
2022/01/19 05:14:48;;;;;;;58.05;25.15;;;3.80;99.90;;;;;;5030967;28;20061;-70
2022/01/19 05:17:14;;;;;;;55.15;21.48;;;3.70;99.90;;;;;;5049317;28;20083;-70
2022/01/19 05:19:40;;;;;;;61.65;23.33;;;3.70;99.90;;;;;;5049921;28;20106;-70
2022/01/19 05:22:05;;;;;;;49.30;22.33;;;3.70;99.90;;;;;;5049416;28;20491;-69
2022/01/19 05:24:31;;;;;;;65.35;26.40;;;3.70;99.90;;;;;;5048415;28;20061;-70
2022/01/19 05:26:57;;;;;;;55.95;22.45;;;3.70;99.90;;;;;;5049135;28;20056;-70
2022/01/19 05:29:22;;;;;;;51.28;22.63;;;3.60;99.90;;;;;;5050846;28;20045;-70
2022/01/19 05:31:48;;;;;;;47.78;21.10;;;3.60;99.90;;;;;;5048930;28;20033;-70
2022/01/19 05:34:13;;;;;;;54.80;25.05;;;3.60;99.90;;;;;;5049180;28;20044;-70
2022/01/19 05:36:39;;;;;;;54.25;21.23;;;3.60;99.90;;;;;;5046964;28;20084;-70
2022/01/19 05:39:05;;;;;;;47.70;22.88;;;3.60;99.90;;;;;;5048895;28;20057;-70
2022/01/19 05:41:32;;;;;;;58.90;23.73;;;3.60;99.90;;;;;;5049481;28;20124;-70
2022/01/19 05:43:57;;;;;;;50.25;24.08;;;3.70;99.90;;;;;;5086558;28;20474;-70
2022/01/19 05:46:23;;;;;;;55.83;22.60;;;3.70;99.90;;;;;;5051625;28;20088;-70
2022/01/19 05:48:51;;;;;;;48.75;22.77;;;3.70;99.90;;;;;;5053334;28;20391;-70
2022/01/19 05:51:17;;;;;;;54.00;25.70;;;5.20;99.90;;;;;;5053092;28;20060;-70
2022/01/19 05:53:43;;;;;;;51.38;21.45;;;3.60;99.90;;;;;;5086483;28;20407;-70
2022/01/19 05:56:08;;;;;;;54.25;22.42;;;3.60;99.90;;;;;;5052879;28;20124;-70
2022/01/19 05:58:34;;;;;;;48.60;21.70;;;3.70;99.90;;;;;;5052816;28;20049;-70
2022/01/19 06:01:00;;;;;;;51.10;21.45;;;3.60;99.90;;;;;;5052285;28;20372;-70
2022/01/19 06:03:26;;;;;;;48.67;21.98;;;3.60;99.90;;;;;;5086793;28;20056;-70
2022/01/19 06:05:52;;;;;;;51.83;23.63;;;3.70;99.90;;;;;;5054297;28;20048;-70
2022/01/19 06:08:29;;;;;;;52.80;23.52;;;3.60;99.90;;;;;;5085973;28;20052;-70
2022/01/19 06:10:55;;;;;;;41.42;20.27;;;3.60;99.90;;;;;;5086631;28;20049;-69
2022/01/19 06:13:23;;;;;;;49.20;23.67;;;3.70;99.90;;;;;;5053079;28;20045;-70
2022/01/19 06:15:49;;;;;;;46.88;20.50;;;3.60;99.90;;;;;;5053274;28;20056;-70
2022/01/19 06:18:16;;;;;;;58.47;25.73;;;3.60;99.90;;;;;;5053685;28;20044;-70
2022/01/19 06:20:43;;;;;;;56.17;24.60;;;3.70;99.90;;;;;;5085534;28;20052;-70
2022/01/19 06:23:09;;;;;;;52.35;23.20;;;3.60;99.90;;;;;;5085890;28;20045;-70
2022/01/19 06:25:35;;;;;;;49.70;22.50;;;3.60;99.90;;;;;;5052816;28;20122;-70
2022/01/19 06:28:01;;;;;;;48.80;22.90;;;3.60;99.90;;;;;;5085099;28;20045;-70
2022/01/19 06:30:27;;;;;;;45.85;22.13;;;3.60;99.90;;;;;;5086468;28;20132;-70
2022/01/19 06:32:53;;;;;;;50.95;23.88;;;3.60;99.90;;;;;;5052797;28;20103;-69
2022/01/19 06:35:19;;;;;;;57.45;23.45;;;3.60;99.90;;;;;;5051441;28;20098;-70
2022/01/19 06:37:45;;;;;;;50.97;21.95;;;3.60;99.90;;;;;;5052634;28;20053;-70
2022/01/19 06:40:13;;;;;;;48.45;22.38;;;3.60;99.90;;;;;;5053135;28;20045;-70
2022/01/19 06:42:39;;;;;;;50.50;23.35;;;3.70;99.90;;;;;;5053050;28;20045;-70
2022/01/19 06:45:05;;;;;;;47.13;23.30;;;3.70;99.90;;;;;;5083770;28;20088;-69
2022/01/19 06:47:31;;;;;;;46.10;21.70;;;3.60;99.90;;;;;;5051935;28;20498;-70
2022/01/19 06:49:57;;;;;;;46.22;23.17;;;3.60;99.90;;;;;;5051080;28;20040;-70
2022/01/19 06:52:22;;;;;;;52.08;23.00;;;3.60;99.90;;;;;;5052835;28;20538;-70
2022/01/19 06:54:48;;;;;;;43.22;21.23;;;3.70;99.90;;;;;;5050967;28;20075;-70
2022/01/19 06:57:14;;;;;;;41.17;21.83;;;3.70;99.90;;;;;;5050807;28;20392;-69
2022/01/19 06:59:39;;;;;;;50.15;23.17;;;3.70;99.90;;;;;;5051778;28;20442;-69
2022/01/19 07:02:05;;;;;;;43.25;21.63;;;3.70;99.90;;;;;;5050874;28;20045;-70
2022/01/19 07:04:31;;;;;;;48.47;22.70;;;3.70;99.90;;;;;;5051122;28;20118;-70
2022/01/19 07:06:57;;;;;;;51.80;23.02;;;3.70;99.90;;;;;;5051675;28;20081;-70
2022/01/19 07:09:22;;;;;;;52.63;23.00;;;3.70;99.90;;;;;;5051404;28;20056;-69
2022/01/19 07:11:51;;;;;;;48.30;24.63;;;3.70;99.90;;;;;;5050551;28;20045;-70
2022/01/19 07:14:17;;;;;;;51.40;23.15;;;3.70;99.90;;;;;;5052514;28;20075;-70
2022/01/19 07:16:44;;;;;;;43.22;23.33;;;3.70;99.90;;;;;;5051834;28;20474;-70
2022/01/19 07:19:10;;;;;;;45.92;21.70;;;3.70;99.90;;;;;;5050537;28;20564;-70
2022/01/19 07:21:36;;;;;;;46.17;22.67;;;3.70;99.90;;;;;;5051231;28;20087;-70
2022/01/19 07:24:01;;;;;;;50.13;24.58;;;3.70;99.90;;;;;;5050435;28;20049;-70
2022/01/19 07:26:30;;;;;;;48.22;24.83;;;3.80;99.90;;;;;;5051604;28;20056;-70
2022/01/19 07:28:55;;;;;;;51.00;25.02;;;3.70;99.90;;;;;;5051279;28;20084;-70
2022/01/19 07:31:21;;;;;;;42.53;23.60;;;3.80;99.90;;;;;;5050635;28;20552;-70
2022/01/19 07:33:46;;;;;;;51.45;24.35;;;3.80;99.90;;;;;;5048063;28;20051;-69
2022/01/19 07:36:12;;;;;;;48.05;24.85;;;3.80;99.90;;;;;;5050448;28;20041;-70
2022/01/19 07:38:38;;;;;;;50.22;24.38;;;3.80;99.90;;;;;;5051715;28;20049;-70
2022/01/19 07:41:03;;;;;;;52.00;24.23;;;3.80;99.90;;;;;;5050840;28;20454;-69
2022/01/19 07:43:29;;;;;;;47.15;24.73;;;3.80;99.90;;;;;;5051118;28;20073;-69
2022/01/19 07:45:54;;;;;;;52.63;23.42;;;3.80;99.90;;;;;;5084713;28;20047;-70
2022/01/19 07:48:20;;;;;;;49.72;25.40;;;3.80;99.90;;;;;;5047331;28;20057;-71
2022/01/19 07:50:46;;;;;;;51.75;23.73;;;3.80;99.90;;;;;;5084610;28;20084;-71
2022/01/19 07:53:11;;;;;;;47.90;24.38;;;3.80;99.90;;;;;;5051193;28;20049;-71
2022/01/19 07:55:37;;;;;;;48.22;24.10;;;3.80;99.90;;;;;;5050356;28;20049;-70
2022/01/19 07:58:03;;;;;;;49.75;25.20;;;3.80;99.90;;;;;;5050490;28;20392;-71
2022/01/19 08:00:29;;;;;;;53.00;24.48;;;3.80;99.90;;;;;;5082605;28;20106;-71
2022/01/19 08:02:55;;;;;;;47.85;24.08;;;3.80;99.90;;;;;;5083902;28;20040;-71
2022/01/19 08:05:21;;;;;;;51.95;25.73;;;3.80;99.90;;;;;;5040249;28;20507;-71
2022/01/19 08:07:49;;;;;;;52.65;26.70;;;3.80;99.90;;;;;;5080506;28;20090;-71
2022/01/19 08:10:15;;;;;;;52.47;26.15;;;3.80;99.90;;;;;;5084225;28;20088;-71
2022/01/19 08:12:42;;;;;;;51.83;26.08;;;3.80;99.90;;;;;;5050423;28;20091;-71
2022/01/19 08:15:08;;;;;;;60.95;27.35;;;3.80;99.90;;;;;;5050785;28;20044;-71
2022/01/19 08:17:34;;;;;;;54.83;27.75;;;3.80;99.90;;;;;;5051651;28;20087;-71
2022/01/19 08:19:59;;;;;;;49.28;26.65;;;3.80;99.90;;;;;;5050463;28;20093;-71
2022/01/19 08:22:25;;;;;;;53.08;27.42;;;3.90;99.90;;;;;;5048173;28;20140;-72
2022/01/19 08:24:51;;;;;;;51.33;26.65;;;3.90;99.90;;;;;;5049490;28;20049;-71
2022/01/19 08:27:17;;;;;;;51.95;26.52;;;3.90;99.90;;;;;;5048817;28;20037;-72
2022/01/19 08:29:43;;;;;;;58.25;27.15;;;3.90;99.90;;;;;;5050418;28;20098;-72
2022/01/19 08:32:09;;;;;;;54.95;28.30;;;4.00;99.90;;;;;;5050169;28;20048;-71
2022/01/19 08:34:34;;;;;;;52.53;25.25;;;4.00;99.90;;;;;;5050222;28;20434;-69
2022/01/19 08:37:01;;;;;;;59.60;28.40;;;4.00;99.90;;;;;;5048708;28;20044;-70
2022/01/19 08:39:27;;;;;;;52.30;28.95;;;4.10;99.90;;;;;;5048637;28;20134;-69
2022/01/19 08:41:53;;;;;;;55.08;29.13;;;4.20;99.90;;;;;;5049277;28;20159;-70
2022/01/19 08:44:20;;;;;;;58.08;29.92;;;4.20;99.90;;;;;;5050321;28;20167;-71
2022/01/19 08:46:46;;;;;;;58.20;30.10;;;4.20;99.90;;;;;;5050540;28;20071;-70
2022/01/19 08:49:12;;;;;;;64.80;30.08;;;4.20;99.90;;;;;;5044450;28;20377;-74
2022/01/19 08:51:38;;;;;;;53.20;28.80;;;4.30;99.90;;;;;;5076153;28;20040;-74
2022/01/19 08:54:03;;;;;;;54.25;28.33;;;4.30;99.90;;;;;;5040972;28;20067;-74
2022/01/19 08:56:30;;;;;;;53.80;30.05;;;4.40;99.90;;;;;;5045699;28;20531;-73
2022/01/19 08:58:56;;;;;;;51.67;27.33;;;4.40;99.90;;;;;;5048665;28;20037;-74
2022/01/19 09:01:23;;;;;;;54.10;30.73;;;4.40;99.90;;;;;;5048713;28;20140;-74
2022/01/19 09:03:49;;;;;;;51.80;27.42;;;4.40;99.90;;;;;;5046306;28;20048;-73
2022/01/19 09:06:14;;;;;;;52.15;30.77;;;4.40;99.90;;;;;;5063126;28;20059;-72
2022/01/19 09:08:40;;;;;;;58.38;28.25;;;4.50;99.90;;;;;;5044987;28;20037;-71
2022/01/19 09:11:06;;;;;;;58.90;29.20;;;4.50;99.90;;;;;;5049787;28;20545;-71
2022/01/19 09:13:33;;;;;;;51.45;28.95;;;4.50;99.90;;;;;;5069877;28;20495;-67
2022/01/19 09:15:58;;;;;;;54.60;29.73;;;4.50;99.90;;;;;;5043435;28;20491;-69
2022/01/19 09:18:24;;;;;;;52.85;29.50;;;4.50;99.90;;;;;;5055329;28;20047;-67
2022/01/19 09:20:50;;;;;;;58.80;29.58;;;4.50;99.90;;;;;;5056323;28;20057;-67
2022/01/19 09:23:15;;;;;;;57.63;30.77;;;4.50;99.90;;;;;;5057374;28;20079;-75
2022/01/19 09:25:41;;;;;;;58.33;29.40;;;4.50;99.90;;;;;;5055359;28;20135;-67
2022/01/19 09:28:08;;;;;;;49.75;28.73;;;4.60;99.90;;;;;;5054713;28;20049;-68
2022/01/19 09:30:35;;;;;;;54.17;29.73;;;4.60;99.90;;;;;;5050495;28;20056;-73
2022/01/19 09:33:09;;;;;;;64.18;32.30;;;4.50;99.90;;;;;;5056017;28;20131;-74
2022/01/19 09:35:52;;;;;;;60.83;30.60;;;4.60;99.90;;;;;;5056260;28;20562;-73
2022/01/19 09:38:25;;;;;;;55.92;31.90;;;4.60;99.90;;;;;;5055298;28;20079;-75
2022/01/19 09:40:51;;;;;;;53.13;30.15;;;4.60;99.90;;;;;;5049106;28;20040;-74
2022/01/19 09:43:18;;;;;;;57.33;28.98;;;4.60;99.90;;;;;;5046727;28;20051;-76
2022/01/19 09:45:47;;;;;;;55.78;28.58;;;4.60;99.90;;;;;;5054022;28;20384;-76
2022/01/19 09:48:12;;;;;;;53.35;28.75;;;4.60;99.90;;;;;;5085761;28;20080;-77
2022/01/19 09:50:38;;;;;;;59.97;30.67;;;4.60;99.90;;;;;;5047432;28;20111;-76
2022/01/19 09:53:05;;;;;;;59.50;32.05;;;4.60;99.90;;;;;;5055146;28;20043;-77
2022/01/19 09:55:31;;;;;;;60.03;31.80;;;4.60;99.90;;;;;;5056125;28;20048;-77
2022/01/19 09:57:57;;;;;;;56.63;31.02;;;4.70;99.90;;;;;;5089146;28;20099;-77
2022/01/19 10:00:23;;;;;;;62.65;31.73;;;4.70;99.90;;;;;;5046013;28;20057;-76
2022/01/19 10:03:10;;;;;;;64.90;33.53;;;4.70;99.90;;;;;;5055122;28;20041;-77
2022/01/19 10:05:36;;;;;;;59.20;31.20;;;4.70;99.90;;;;;;5055820;28;20409;-77
2022/01/19 10:08:01;;;;;;;55.42;32.03;;;4.70;99.90;;;;;;5055662;28;20041;-78
2022/01/19 10:10:27;;;;;;;58.47;32.22;;;4.70;99.90;;;;;;5054744;28;20060;-78
2022/01/19 10:18:25;;;;;;;58.97;33.00;;;4.70;99.90;;;;;;5056135;28;20077;-78
2022/01/19 10:21:16;;;;;;;58.97;31.98;;;4.70;99.90;;;;;;5054022;28;20403;-73
2022/01/19 10:23:50;;;;;;;60.35;32.30;;;4.70;99.90;;;;;;5057793;28;20131;-77
2022/01/19 10:26:24;;;;;;;60.10;31.83;;;4.70;99.90;;;;;;5055364;28;20521;-78
2022/01/19 10:29:10;;;;;;;55.13;29.30;;;4.70;99.90;;;;;;5051408;28;20491;-78
2022/01/19 10:31:40;;;;;;;63.08;32.80;;;4.70;99.90;;;;;;5053230;28;20052;-78
2022/01/19 10:34:24;;;;;;;63.65;33.85;;;4.70;99.90;;;;;;5051931;28;20073;-78
2022/01/19 10:36:57;;;;;;;70.15;35.88;;;4.70;99.90;;;;;;5053318;28;20051;-76
2022/01/19 10:39:36;;;;;;;63.63;34.13;;;4.70;99.90;;;;;;5053886;28;20064;-77
2022/01/19 10:42:05;;;;;;;65.68;32.30;;;4.70;99.90;;;;;;5085876;28;20106;-76
2022/01/19 10:44:37;;;;;;;59.72;34.17;;;4.70;99.90;;;;;;5044721;28;20056;-76
2022/01/19 10:47:04;;;;;;;61.28;32.83;;;4.80;99.90;;;;;;5053003;28;20047;-77
2022/01/19 10:49:52;;;;;;;64.82;35.67;;;4.80;99.90;;;;;;5051986;28;20052;-76
2022/01/19 10:52:37;;;;;;;62.97;35.08;;;4.80;99.90;;;;;;5052821;28;20045;-77
2022/01/19 10:55:06;;;;;;;68.15;35.08;;;4.90;99.90;;;;;;5050994;28;20520;-76
2022/01/19 10:57:34;;;;;;;60.80;33.78;;;4.80;99.90;;;;;;5052577;28;20053;-77
2022/01/19 11:00:36;;;;;;;64.95;36.20;;;4.90;99.90;;;;;;5052976;28;20049;-76
2022/01/19 11:03:17;;;;;;;61.92;35.75;;;4.90;99.90;;;;;;5048224;28;20053;-76
2022/01/19 11:05:48;;;;;;;59.90;33.42;;;4.90;99.90;;;;;;5053486;28;20131;-76
2022/01/19 11:08:17;;;;;;;60.63;34.20;;;4.90;99.90;;;;;;5053322;28;20492;-75
2022/01/19 11:10:48;;;;;;;73.20;34.28;;;5.00;99.90;;;;;;5052091;28;20415;-74
2022/01/19 11:13:17;;;;;;;61.10;33.38;;;4.90;99.90;;;;;;5051688;28;20045;-74
2022/01/19 11:15:43;;;;;;;63.03;35.13;;;5.00;99.90;;;;;;5042637;28;20128;-74
2022/01/19 11:18:09;;;;;;;62.15;32.15;;;5.00;99.90;;;;;;5051077;28;20041;-74
2022/01/19 11:20:47;;;;;;;59.55;33.38;;;5.10;99.90;;;;;;5053423;28;20403;-74
2022/01/19 11:23:50;;;;;;;64.88;32.20;;;5.10;99.90;;;;;;5051161;28;20060;-74
2022/01/19 11:26:23;;;;;;;60.35;35.22;;;5.10;99.90;;;;;;5052038;28;20057;-74
2022/01/19 11:28:49;;;;;;;62.50;33.70;;;5.20;99.90;;;;;;5051610;28;20458;-74
2022/01/19 11:31:37;;;;;;;71.97;36.22;;;5.20;99.90;;;;;;5051053;28;20481;-74
2022/01/19 11:34:03;;;;;;;64.65;33.40;;;5.30;99.90;;;;;;5051342;28;20057;-75
2022/01/19 11:36:40;;;;;;;71.75;36.65;;;5.30;99.90;;;;;;5052014;28;20052;-73
2022/01/19 11:39:09;;;;;;;61.05;33.15;;;5.30;99.90;;;;;;5050470;28;20049;-73
2022/01/19 11:41:46;;;;;;;63.13;34.95;;;5.40;99.90;;;;;;5050793;28;20095;-73
2022/01/19 11:44:31;;;;;;;63.67;34.42;;;5.40;99.90;;;;;;5050772;28;20049;-74
2022/01/19 11:47:16;;;;;;;61.78;34.53;;;5.40;99.90;;;;;;5051925;28;20056;-73
2022/01/19 11:49:54;;;;;;;63.67;36.58;;;5.40;99.90;;;;;;5051817;28;20506;-78
2022/01/19 11:52:23;;;;;;;58.25;34.22;;;5.40;99.90;;;;;;5050367;28;20059;-73
2022/01/19 11:54:51;;;;;;;62.58;36.03;;;5.50;99.90;;;;;;5051388;28;20048;-74
2022/01/19 11:57:27;;;;;;;59.50;34.83;;;5.50;99.90;;;;;;5050993;28;20102;-73
2022/01/19 12:00:31;;;;;;;62.33;35.05;;;5.50;99.90;;;;;;5051767;28;20122;-73
2022/01/19 12:02:58;;;;;;;63.22;34.25;;;5.50;99.90;;;;;;5041334;28;20133;-72
2022/01/19 12:05:37;;;;;;;58.97;32.75;;;5.50;99.90;;;;;;5050458;28;20055;-73
2022/01/19 12:08:22;;;;;;;55.88;31.80;;;5.50;99.90;;;;;;5051131;28;20087;-72
2022/01/19 12:10:50;;;;;;;50.75;27.48;;;5.50;99.90;;;;;;5051073;28;20458;-72
2022/01/19 12:19:12;;;;;;;49.65;25.48;;;5.50;99.90;;;;;;5051118;28;20049;-72
2022/01/19 12:21:51;;;;;;;54.45;24.77;;;5.50;99.90;;;;;;5084188;28;20157;-74
2022/01/19 12:24:21;;;;;;;41.78;22.00;;;5.60;99.90;;;;;;5050682;28;20548;-73
2022/01/19 12:26:57;;;;;;;35.03;21.27;;;5.60;99.90;;;;;;5084061;28;20053;-72
2022/01/19 12:29:36;;;;;;;40.45;23.42;;;5.60;99.90;;;;;;5050827;28;20399;-72
2022/01/19 12:32:08;;;;;;;44.17;23.85;;;5.70;99.90;;;;;;5072577;28;20048;-73
2022/01/19 12:34:49;;;;;;;46.83;23.98;;;5.70;99.90;;;;;;5083797;28;20484;-72
2022/01/19 12:37:27;;;;;;;42.55;24.30;;;5.70;99.90;;;;;;5049933;28;20045;-73
2022/01/19 12:39:54;;;;;;;45.13;24.38;;;5.70;99.90;;;;;;5046817;28;20049;-73
2022/01/19 12:42:26;;;;;;;54.50;27.20;;;5.70;99.90;;;;;;5049718;28;20043;-73
2022/01/19 12:44:58;;;;;;;47.22;24.88;;;5.70;99.90;;;;;;5050630;28;20045;-72
2022/01/19 12:47:26;;;;;;;44.13;24.48;;;5.80;99.90;;;;;;5049490;28;20072;-73
2022/01/19 12:50:07;;;;;;;43.25;25.25;;;5.80;99.90;;;;;;5050750;28;20483;-73
2022/01/19 12:52:41;;;;;;;39.72;23.05;;;5.90;99.90;;;;;;5049652;28;20051;-73
2022/01/19 12:55:24;;;;;;;46.70;26.67;;;5.90;99.90;;;;;;5049463;28;20067;-72
2022/01/19 12:57:51;;;;;;;43.17;25.77;;;6.00;99.90;;;;;;5050499;28;20044;-73
2022/01/19 13:00:30;;;;;;;42.97;23.83;;;6.00;99.90;;;;;;5083923;28;20052;-73
2022/01/19 13:02:57;;;;;;;50.53;24.63;;;6.00;99.90;;;;;;5050995;28;20048;-72
2022/01/19 13:05:24;;;;;;;45.83;24.75;;;5.90;99.90;;;;;;5084200;28;20091;-73
2022/01/19 13:07:55;;;;;;;40.35;22.70;;;5.90;99.90;;;;;;5051983;28;20056;-73
2022/01/19 13:10:50;;;;;;;49.75;25.23;;;5.90;99.90;;;;;;5049422;28;20058;-73
2022/01/19 13:13:33;;;;;;;35.80;22.88;;;5.90;99.90;;;;;;5082434;28;20068;-70
2022/01/19 13:16:04;;;;;;;39.78;20.80;;;5.80;99.90;;;;;;5047742;28;20049;-70
2022/01/19 13:18:39;;;;;;;38.92;21.30;;;5.90;99.90;;;;;;5050166;28;20102;-71
2022/01/19 13:21:12;;;;;;;37.03;21.92;;;5.80;99.90;;;;;;5049830;28;20751;-72
2022/01/19 13:23:52;;;;;;;39.70;21.00;;;5.80;99.90;;;;;;5079704;28;20420;-72
2022/01/19 13:26:18;;;;;;;34.97;20.80;;;5.80;99.90;;;;;;5078526;28;20045;-72
2022/01/19 13:28:44;;;;;;;35.40;18.67;;;5.80;99.90;;;;;;5050142;28;20140;-72
2022/01/19 13:31:15;;;;;;;38.42;19.42;;;5.80;99.90;;;;;;5048887;28;20119;-72
2022/01/19 13:33:51;;;;;;;38.03;17.90;;;5.80;99.90;;;;;;5050137;28;20045;-71
2022/01/19 13:36:16;;;;;;;35.50;18.13;;;5.80;99.90;;;;;;5049731;28;20495;-71
2022/01/19 13:38:51;;;;;;;38.35;16.75;;;5.80;99.90;;;;;;5049311;28;20111;-71
2022/01/19 13:41:17;;;;;;;34.67;19.52;;;5.80;99.90;;;;;;5049549;28;20049;-72
2022/01/19 13:43:42;;;;;;;36.40;18.40;;;5.80;99.90;;;;;;5049331;28;20404;-72
2022/01/19 13:46:15;;;;;;;40.03;18.45;;;5.80;99.90;;;;;;5048153;28;20045;-72
2022/01/19 13:48:47;;;;;;;31.48;19.65;;;5.70;99.90;;;;;;5051164;28;20056;-72
2022/01/19 13:51:17;;;;;;;53.03;20.13;;;5.70;99.90;;;;;;5050159;28;20059;-72
2022/01/19 13:53:49;;;;;;;43.47;19.23;;;5.60;99.90;;;;;;5050189;28;20118;-72
2022/01/19 13:56:27;;;;;;;41.35;19.42;;;5.60;99.90;;;;;;5049129;28;20053;-71
2022/01/19 13:58:58;;;;;;;38.45;19.52;;;5.50;99.90;;;;;;5049267;28;20053;-72
2022/01/19 14:01:59;;;;;;;39.67;19.13;;;5.40;99.90;;;;;;5049575;28;20050;-69
2022/01/19 14:04:27;;;;;;;40.45;20.65;;;5.40;99.90;;;;;;5052337;28;20167;-72
2022/01/19 14:07:02;;;;;;;40.47;19.38;;;5.40;99.90;;;;;;5053102;28;20056;-72
2022/01/19 14:09:31;;;;;;;39.78;20.35;;;5.40;99.90;;;;;;5053608;28;20059;-72
2022/01/19 14:12:06;;;;;;;37.67;19.65;;;5.30;99.90;;;;;;5054025;28;20045;-72
2022/01/19 14:14:42;;;;;;;45.10;20.88;;;5.30;99.90;;;;;;5053602;28;20469;-72